sensor_id;sensor_type;location;lat;lon;timestamp;temperature;humidity
26952;DHT22;14507;52.418;13.398;2022-08-19T00:01:48;22.50;99.90
26952;DHT22;14507;52.418;13.398;2022-08-19T00:04:16;22.50;99.90
26952;DHT22;14507;52.418;13.398;2022-08-19T00:06:44;22.50;99.90
26952;DHT22;14507;52.418;13.398;2022-08-19T00:09:12;22.50;99.90
26952;DHT22;14507;52.418;13.398;2022-08-19T00:11:40;22.40;99.90
26952;DHT22;14507;52.418;13.398;2022-08-19T00:14:07;22.40;99.90
26952;DHT22;14507;52.418;13.398;2022-08-19T00:16:35;22.40;99.90
26952;DHT22;14507;52.418;13.398;2022-08-19T00:19:02;22.40;99.90
26952;DHT22;14507;52.418;13.398;2022-08-19T00:21:28;22.40;99.90
26952;DHT22;14507;52.418;13.398;2022-08-19T00:23:54;22.40;99.90
26952;DHT22;14507;52.418;13.398;2022-08-19T00:26:24;22.30;99.90
26952;DHT22;14507;52.418;13.398;2022-08-19T00:28:50;22.30;99.90
26952;DHT22;14507;52.418;13.398;2022-08-19T00:31:16;22.20;99.90
26952;DHT22;14507;52.418;13.398;2022-08-19T00:33:41;22.30;99.90
26952;DHT22;14507;52.418;13.398;2022-08-19T00:36:08;22.30;99.90
26952;DHT22;14507;52.418;13.398;2022-08-19T00:38:36;22.30;99.90
26952;DHT22;14507;52.418;13.398;2022-08-19T00:41:01;22.30;99.90
26952;DHT22;14507;52.418;13.398;2022-08-19T00:43:28;22.20;99.90
26952;DHT22;14507;52.418;13.398;2022-08-19T00:45:54;22.20;99.90
26952;DHT22;14507;52.418;13.398;2022-08-19T00:48:20;22.20;99.90
26952;DHT22;14507;52.418;13.398;2022-08-19T00:50:48;22.20;99.90
26952;DHT22;14507;52.418;13.398;2022-08-19T00:53:16;22.20;99.90
26952;DHT22;14507;52.418;13.398;2022-08-19T00:55:52;22.10;99.90
26952;DHT22;14507;52.418;13.398;2022-08-19T00:58:20;22.10;99.90
26952;DHT22;14507;52.418;13.398;2022-08-19T01:00:46;22.10;99.90
26952;DHT22;14507;52.418;13.398;2022-08-19T01:03:17;22.10;99.90
26952;DHT22;14507;52.418;13.398;2022-08-19T01:05:44;22.10;99.90
26952;DHT22;14507;52.418;13.398;2022-08-19T01:08:11;22.10;99.90
26952;DHT22;14507;52.418;13.398;2022-08-19T01:10:40;22.10;99.90
26952;DHT22;14507;52.418;13.398;2022-08-19T01:13:06;22.00;99.90
26952;DHT22;14507;52.418;13.398;2022-08-19T01:15:43;22.00;99.90
26952;DHT22;14507;52.418;13.398;2022-08-19T01:18:12;22.10;99.90
26952;DHT22;14507;52.418;13.398;2022-08-19T01:20:39;22.00;99.90
26952;DHT22;14507;52.418;13.398;2022-08-19T01:23:05;22.10;99.90
26952;DHT22;14507;52.418;13.398;2022-08-19T01:25:35;22.00;99.90
26952;DHT22;14507;52.418;13.398;2022-08-19T01:28:02;21.90;99.90
26952;DHT22;14507;52.418;13.398;2022-08-19T01:30:32;21.90;99.90
26952;DHT22;14507;52.418;13.398;2022-08-19T01:32:58;21.90;99.90
26952;DHT22;14507;52.418;13.398;2022-08-19T01:35:27;21.90;99.90
26952;DHT22;14507;52.418;13.398;2022-08-19T01:38:00;21.80;99.90
26952;DHT22;14507;52.418;13.398;2022-08-19T01:40:29;21.90;99.90
26952;DHT22;14507;52.418;13.398;2022-08-19T01:42:56;21.80;99.90
26952;DHT22;14507;52.418;13.398;2022-08-19T01:45:24;21.80;99.90
26952;DHT22;14507;52.418;13.398;2022-08-19T01:47:50;21.80;99.90
26952;DHT22;14507;52.418;13.398;2022-08-19T01:50:16;21.80;99.90
26952;DHT22;14507;52.418;13.398;2022-08-19T01:52:43;21.70;99.90
26952;DHT22;14507;52.418;13.398;2022-08-19T01:55:12;21.70;99.90
26952;DHT22;14507;52.418;13.398;2022-08-19T01:57:40;21.70;99.90
26952;DHT22;14507;52.418;13.398;2022-08-19T02:00:09;21.70;99.90
26952;DHT22;14507;52.418;13.398;2022-08-19T02:02:35;21.70;99.90
26952;DHT22;14507;52.418;13.398;2022-08-19T02:05:01;21.70;99.90
26952;DHT22;14507;52.418;13.398;2022-08-19T02:07:26;21.70;99.90
26952;DHT22;14507;52.418;13.398;2022-08-19T02:09:54;21.70;99.90
26952;DHT22;14507;52.418;13.398;2022-08-19T02:12:21;21.70;99.90
26952;DHT22;14507;52.418;13.398;2022-08-19T02:14:47;21.70;99.90
26952;DHT22;14507;52.418;13.398;2022-08-19T02:17:13;21.60;99.90
26952;DHT22;14507;52.418;13.398;2022-08-19T02:19:38;21.60;99.90
26952;DHT22;14507;52.418;13.398;2022-08-19T02:22:04;21.60;99.90
26952;DHT22;14507;52.418;13.398;2022-08-19T02:24:30;21.60;99.90
26952;DHT22;14507;52.418;13.398;2022-08-19T02:26:56;21.50;99.90
26952;DHT22;14507;52.418;13.398;2022-08-19T02:29:22;21.50;99.90
26952;DHT22;14507;52.418;13.398;2022-08-19T02:31:48;21.50;99.90
26952;DHT22;14507;52.418;13.398;2022-08-19T02:34:13;21.50;99.90
26952;DHT22;14507;52.418;13.398;2022-08-19T02:36:39;21.50;99.90
26952;DHT22;14507;52.418;13.398;2022-08-19T02:39:05;21.50;99.90
26952;DHT22;14507;52.418;13.398;2022-08-19T02:41:32;21.50;99.90
26952;DHT22;14507;52.418;13.398;2022-08-19T02:44:00;21.30;99.90
26952;DHT22;14507;52.418;13.398;2022-08-19T02:46:27;21.40;99.90
26952;DHT22;14507;52.418;13.398;2022-08-19T02:48:57;21.40;99.90
26952;DHT22;14507;52.418;13.398;2022-08-19T02:51:31;21.30;99.90
26952;DHT22;14507;52.418;13.398;2022-08-19T02:53:58;21.30;99.90
26952;DHT22;14507;52.418;13.398;2022-08-19T02:56:25;21.30;99.90
26952;DHT22;14507;52.418;13.398;2022-08-19T02:58:53;21.30;99.90
26952;DHT22;14507;52.418;13.398;2022-08-19T03:01:27;21.10;99.90
26952;DHT22;14507;52.418;13.398;2022-08-19T03:03:53;21.30;99.90
26952;DHT22;14507;52.418;13.398;2022-08-19T03:06:19;21.20;99.90
26952;DHT22;14507;52.418;13.398;2022-08-19T03:08:47;21.20;99.90
26952;DHT22;14507;52.418;13.398;2022-08-19T03:11:24;21.20;99.90
26952;DHT22;14507;52.418;13.398;2022-08-19T03:13:51;21.20;99.90
26952;DHT22;14507;52.418;13.398;2022-08-19T03:16:18;21.20;99.90
26952;DHT22;14507;52.418;13.398;2022-08-19T03:18:44;21.20;99.90
26952;DHT22;14507;52.418;13.398;2022-08-19T03:21:16;21.20;99.90
26952;DHT22;14507;52.418;13.398;2022-08-19T03:23:41;21.20;99.90
26952;DHT22;14507;52.418;13.398;2022-08-19T03:26:07;21.10;99.90
26952;DHT22;14507;52.418;13.398;2022-08-19T03:28:33;21.20;99.90
26952;DHT22;14507;52.418;13.398;2022-08-19T03:31:03;21.10;99.90
26952;DHT22;14507;52.418;13.398;2022-08-19T03:33:30;21.10;99.90
26952;DHT22;14507;52.418;13.398;2022-08-19T03:36:22;21.10;99.90
26952;DHT22;14507;52.418;13.398;2022-08-19T03:38:54;21.10;99.90
26952;DHT22;14507;52.418;13.398;2022-08-19T03:41:29;21.10;99.90
26952;DHT22;14507;52.418;13.398;2022-08-19T03:43:56;21.10;99.90
26952;DHT22;14507;52.418;13.398;2022-08-19T03:46:25;21.00;99.90
26952;DHT22;14507;52.418;13.398;2022-08-19T03:48:54;21.00;99.90
26952;DHT22;14507;52.418;13.398;2022-08-19T03:51:26;21.00;99.90
26952;DHT22;14507;52.418;13.398;2022-08-19T03:53:54;21.00;99.90
26952;DHT22;14507;52.418;13.398;2022-08-19T03:56:20;21.00;99.90
26952;DHT22;14507;52.418;13.398;2022-08-19T03:58:45;21.00;99.90
26952;DHT22;14507;52.418;13.398;2022-08-19T04:01:15;21.00;99.90
26952;DHT22;14507;52.418;13.398;2022-08-19T04:03:41;21.00;99.90
26952;DHT22;14507;52.418;13.398;2022-08-19T04:06:21;21.00;99.90
26952;DHT22;14507;52.418;13.398;2022-08-19T04:08:49;21.00;99.90
26952;DHT22;14507;52.418;13.398;2022-08-19T04:11:28;21.00;99.90
26952;DHT22;14507;52.418;13.398;2022-08-19T04:13:54;21.00;99.90
26952;DHT22;14507;52.418;13.398;2022-08-19T04:16:22;21.00;99.90
26952;DHT22;14507;52.418;13.398;2022-08-19T04:18:48;21.00;99.90
26952;DHT22;14507;52.418;13.398;2022-08-19T04:21:19;21.00;99.90
26952;DHT22;14507;52.418;13.398;2022-08-19T04:23:46;21.00;99.90
26952;DHT22;14507;52.418;13.398;2022-08-19T04:26:14;21.00;99.90
26952;DHT22;14507;52.418;13.398;2022-08-19T04:28:41;21.00;99.90
26952;DHT22;14507;52.418;13.398;2022-08-19T04:31:13;21.10;99.90
26952;DHT22;14507;52.418;13.398;2022-08-19T04:33:39;21.10;99.90
26952;DHT22;14507;52.418;13.398;2022-08-19T04:36:05;21.10;99.90
26952;DHT22;14507;52.418;13.398;2022-08-19T04:38:33;21.10;99.90
26952;DHT22;14507;52.418;13.398;2022-08-19T04:40:59;21.20;99.90
26952;DHT22;14507;52.418;13.398;2022-08-19T04:43:45;21.20;99.90
26952;DHT22;14507;52.418;13.398;2022-08-19T04:46:14;21.20;99.90
26952;DHT22;14507;52.418;13.398;2022-08-19T04:48:39;21.30;99.90
26952;DHT22;14507;52.418;13.398;2022-08-19T04:51:08;21.40;99.90
26952;DHT22;14507;52.418;13.398;2022-08-19T04:53:35;21.50;99.90
26952;DHT22;14507;52.418;13.398;2022-08-19T04:56:06;21.50;99.90
26952;DHT22;14507;52.418;13.398;2022-08-19T04:58:32;21.60;99.90
26952;DHT22;14507;52.418;13.398;2022-08-19T05:00:58;21.60;99.90
26952;DHT22;14507;52.418;13.398;2022-08-19T05:03:25;21.70;99.90
26952;DHT22;14507;52.418;13.398;2022-08-19T05:05:52;21.80;99.90
26952;DHT22;14507;52.418;13.398;2022-08-19T05:08:20;21.90;99.90
26952;DHT22;14507;52.418;13.398;2022-08-19T05:10:48;21.90;99.90
26952;DHT22;14507;52.418;13.398;2022-08-19T05:13:16;22.00;99.90
26952;DHT22;14507;52.418;13.398;2022-08-19T05:15:42;22.10;99.90
26952;DHT22;14507;52.418;13.398;2022-08-19T05:18:08;22.10;99.90
26952;DHT22;14507;52.418;13.398;2022-08-19T05:20:53;22.30;99.90
26952;DHT22;14507;52.418;13.398;2022-08-19T05:23:37;22.50;99.90
26952;DHT22;14507;52.418;13.398;2022-08-19T05:26:03;23.10;99.90
26952;DHT22;14507;52.418;13.398;2022-08-19T05:28:29;23.50;99.90
26952;DHT22;14507;52.418;13.398;2022-08-19T05:30:55;23.90;99.90
26952;DHT22;14507;52.418;13.398;2022-08-19T05:33:21;24.30;99.90
26952;DHT22;14507;52.418;13.398;2022-08-19T05:35:48;24.60;99.90
26952;DHT22;14507;52.418;13.398;2022-08-19T05:38:18;24.70;99.90
26952;DHT22;14507;52.418;13.398;2022-08-19T05:40:43;24.60;99.90
26952;DHT22;14507;52.418;13.398;2022-08-19T05:43:13;24.50;99.90
26952;DHT22;14507;52.418;13.398;2022-08-19T05:45:42;24.30;99.90
26952;DHT22;14507;52.418;13.398;2022-08-19T05:48:11;24.20;99.90
26952;DHT22;14507;52.418;13.398;2022-08-19T05:50:39;24.00;99.90
26952;DHT22;14507;52.418;13.398;2022-08-19T05:53:05;23.90;99.90
26952;DHT22;14507;52.418;13.398;2022-08-19T05:55:31;23.80;99.90
26952;DHT22;14507;52.418;13.398;2022-08-19T05:57:57;23.70;99.90
26952;DHT22;14507;52.418;13.398;2022-08-19T06:00:23;23.60;99.90
26952;DHT22;14507;52.418;13.398;2022-08-19T06:02:49;23.50;99.90
26952;DHT22;14507;52.418;13.398;2022-08-19T06:05:16;23.40;99.90
26952;DHT22;14507;52.418;13.398;2022-08-19T06:07:41;23.30;99.90
26952;DHT22;14507;52.418;13.398;2022-08-19T06:10:09;23.20;99.90
26952;DHT22;14507;52.418;13.398;2022-08-19T06:12:36;23.10;99.90
26952;DHT22;14507;52.418;13.398;2022-08-19T06:15:08;23.10;99.90
26952;DHT22;14507;52.418;13.398;2022-08-19T06:17:34;23.10;99.90
26952;DHT22;14507;52.418;13.398;2022-08-19T06:20:01;23.00;99.90
26952;DHT22;14507;52.418;13.398;2022-08-19T06:22:27;23.00;99.90
26952;DHT22;14507;52.418;13.398;2022-08-19T06:24:54;23.00;99.90
26952;DHT22;14507;52.418;13.398;2022-08-19T06:27:21;23.00;99.90
26952;DHT22;14507;52.418;13.398;2022-08-19T06:29:46;23.00;99.90
26952;DHT22;14507;52.418;13.398;2022-08-19T06:32:14;23.10;99.90
26952;DHT22;14507;52.418;13.398;2022-08-19T06:34:41;23.20;99.90
26952;DHT22;14507;52.418;13.398;2022-08-19T06:37:07;23.30;99.90
26952;DHT22;14507;52.418;13.398;2022-08-19T06:39:37;23.30;99.90
26952;DHT22;14507;52.418;13.398;2022-08-19T06:42:06;23.30;99.90
26952;DHT22;14507;52.418;13.398;2022-08-19T06:44:35;23.30;99.90
26952;DHT22;14507;52.418;13.398;2022-08-19T06:47:05;23.40;99.90
26952;DHT22;14507;52.418;13.398;2022-08-19T06:49:32;23.30;99.90
26952;DHT22;14507;52.418;13.398;2022-08-19T06:51:58;23.30;99.90
26952;DHT22;14507;52.418;13.398;2022-08-19T06:54:24;23.30;99.90
26952;DHT22;14507;52.418;13.398;2022-08-19T06:56:51;23.30;99.90
26952;DHT22;14507;52.418;13.398;2022-08-19T06:59:19;23.30;99.90
26952;DHT22;14507;52.418;13.398;2022-08-19T07:01:48;23.30;99.90
26952;DHT22;14507;52.418;13.398;2022-08-19T07:04:15;23.30;99.90
26952;DHT22;14507;52.418;13.398;2022-08-19T07:06:42;23.30;99.90
26952;DHT22;14507;52.418;13.398;2022-08-19T07:09:09;23.30;99.90
26952;DHT22;14507;52.418;13.398;2022-08-19T07:11:35;23.40;99.90
26952;DHT22;14507;52.418;13.398;2022-08-19T07:14:01;23.50;99.90
26952;DHT22;14507;52.418;13.398;2022-08-19T07:16:28;23.50;99.90
26952;DHT22;14507;52.418;13.398;2022-08-19T07:18:54;23.60;99.90
26952;DHT22;14507;52.418;13.398;2022-08-19T07:21:24;23.70;99.90
26952;DHT22;14507;52.418;13.398;2022-08-19T07:23:51;23.70;99.90
26952;DHT22;14507;52.418;13.398;2022-08-19T07:26:20;23.80;99.90
26952;DHT22;14507;52.418;13.398;2022-08-19T07:28:47;23.80;99.90
26952;DHT22;14507;52.418;13.398;2022-08-19T07:31:17;23.90;99.90
26952;DHT22;14507;52.418;13.398;2022-08-19T07:33:44;24.00;99.90
26952;DHT22;14507;52.418;13.398;2022-08-19T07:36:12;24.00;99.90
26952;DHT22;14507;52.418;13.398;2022-08-19T07:38:41;24.10;99.90
26952;DHT22;14507;52.418;13.398;2022-08-19T07:41:14;24.30;99.90
26952;DHT22;14507;52.418;13.398;2022-08-19T07:43:40;24.30;99.90
26952;DHT22;14507;52.418;13.398;2022-08-19T07:46:06;24.40;99.90
26952;DHT22;14507;52.418;13.398;2022-08-19T07:48:32;24.50;99.90
26952;DHT22;14507;52.418;13.398;2022-08-19T07:51:01;24.60;99.90
26952;DHT22;14507;52.418;13.398;2022-08-19T07:53:27;24.70;99.90
26952;DHT22;14507;52.418;13.398;2022-08-19T07:55:53;24.80;99.90
26952;DHT22;14507;52.418;13.398;2022-08-19T07:58:21;24.90;99.90
26952;DHT22;14507;52.418;13.398;2022-08-19T08:00:49;25.00;99.90
26952;DHT22;14507;52.418;13.398;2022-08-19T08:03:15;25.00;99.90
26952;DHT22;14507;52.418;13.398;2022-08-19T08:05:42;25.00;99.90
26952;DHT22;14507;52.418;13.398;2022-08-19T08:08:31;25.00;99.90
26952;DHT22;14507;52.418;13.398;2022-08-19T08:10:56;24.90;99.90
26952;DHT22;14507;52.418;13.398;2022-08-19T08:13:23;24.80;99.90
26952;DHT22;14507;52.418;13.398;2022-08-19T08:15:49;24.70;99.90
26952;DHT22;14507;52.418;13.398;2022-08-19T08:18:15;24.60;99.90
26952;DHT22;14507;52.418;13.398;2022-08-19T08:20:40;24.50;99.90
26952;DHT22;14507;52.418;13.398;2022-08-19T08:23:06;24.50;99.90
26952;DHT22;14507;52.418;13.398;2022-08-19T08:25:51;24.40;99.90
26952;DHT22;14507;52.418;13.398;2022-08-19T08:28:17;24.40;99.90
26952;DHT22;14507;52.418;13.398;2022-08-19T08:30:44;24.40;99.90
26952;DHT22;14507;52.418;13.398;2022-08-19T08:33:13;24.60;99.90
26952;DHT22;14507;52.418;13.398;2022-08-19T08:35:40;24.70;99.90
26952;DHT22;14507;52.418;13.398;2022-08-19T08:38:07;24.70;99.90
26952;DHT22;14507;52.418;13.398;2022-08-19T08:40:43;24.80;99.90
26952;DHT22;14507;52.418;13.398;2022-08-19T08:46:08;24.80;99.90
26952;DHT22;14507;52.418;13.398;2022-08-19T08:51:10;24.80;99.90
26952;DHT22;14507;52.418;13.398;2022-08-19T08:53:37;24.80;99.90
26952;DHT22;14507;52.418;13.398;2022-08-19T08:56:06;24.80;99.90
26952;DHT22;14507;52.418;13.398;2022-08-19T08:58:40;24.80;99.90
26952;DHT22;14507;52.418;13.398;2022-08-19T09:01:10;24.80;99.90
26952;DHT22;14507;52.418;13.398;2022-08-19T09:03:37;24.90;99.90
26952;DHT22;14507;52.418;13.398;2022-08-19T09:12:05;25.00;99.90
26952;DHT22;14507;52.418;13.398;2022-08-19T09:17:09;25.10;99.90
26952;DHT22;14507;52.418;13.398;2022-08-19T09:19:35;25.10;99.90
26952;DHT22;14507;52.418;13.398;2022-08-19T09:22:01;25.10;99.90
26952;DHT22;14507;52.418;13.398;2022-08-19T09:24:27;25.30;99.90
26952;DHT22;14507;52.418;13.398;2022-08-19T09:26:52;25.30;99.90
26952;DHT22;14507;52.418;13.398;2022-08-19T09:29:18;25.40;99.90
26952;DHT22;14507;52.418;13.398;2022-08-19T09:31:46;25.40;99.90
26952;DHT22;14507;52.418;13.398;2022-08-19T09:34:11;25.50;99.90
26952;DHT22;14507;52.418;13.398;2022-08-19T09:36:37;25.60;99.90
26952;DHT22;14507;52.418;13.398;2022-08-19T09:39:04;25.60;99.90
26952;DHT22;14507;52.418;13.398;2022-08-19T09:41:31;25.60;99.90
26952;DHT22;14507;52.418;13.398;2022-08-19T09:43:57;25.70;99.90
26952;DHT22;14507;52.418;13.398;2022-08-19T09:46:28;25.70;99.90
26952;DHT22;14507;52.418;13.398;2022-08-19T09:48:54;25.70;99.90
26952;DHT22;14507;52.418;13.398;2022-08-19T09:51:22;25.80;99.90
26952;DHT22;14507;52.418;13.398;2022-08-19T09:53:49;25.80;99.90
26952;DHT22;14507;52.418;13.398;2022-08-19T09:56:17;25.80;99.90
26952;DHT22;14507;52.418;13.398;2022-08-19T09:58:42;25.70;99.90
26952;DHT22;14507;52.418;13.398;2022-08-19T10:01:08;25.70;99.90
26952;DHT22;14507;52.418;13.398;2022-08-19T10:03:36;25.60;99.90
26952;DHT22;14507;52.418;13.398;2022-08-19T10:06:04;25.50;99.90
26952;DHT22;14507;52.418;13.398;2022-08-19T10:08:35;25.50;99.90
26952;DHT22;14507;52.418;13.398;2022-08-19T10:11:02;25.60;99.90
26952;DHT22;14507;52.418;13.398;2022-08-19T10:13:30;25.60;99.90
26952;DHT22;14507;52.418;13.398;2022-08-19T10:16:07;25.70;99.90
26952;DHT22;14507;52.418;13.398;2022-08-19T10:18:34;25.80;99.90
26952;DHT22;14507;52.418;13.398;2022-08-19T10:21:09;25.80;99.90
26952;DHT22;14507;52.418;13.398;2022-08-19T10:23:40;25.80;99.90
26952;DHT22;14507;52.418;13.398;2022-08-19T10:26:11;25.70;99.90
26952;DHT22;14507;52.418;13.398;2022-08-19T10:28:37;25.80;99.90
26952;DHT22;14507;52.418;13.398;2022-08-19T10:31:27;25.60;99.90
26952;DHT22;14507;52.418;13.398;2022-08-19T10:33:53;25.40;99.90
26952;DHT22;14507;52.418;13.398;2022-08-19T10:36:25;25.30;99.90
26952;DHT22;14507;52.418;13.398;2022-08-19T10:38:52;25.20;99.90
26952;DHT22;14507;52.418;13.398;2022-08-19T10:41:24;25.10;99.90
26952;DHT22;14507;52.418;13.398;2022-08-19T10:43:51;25.00;99.90
26952;DHT22;14507;52.418;13.398;2022-08-19T10:46:20;24.90;99.90
26952;DHT22;14507;52.418;13.398;2022-08-19T10:48:47;24.80;99.90
26952;DHT22;14507;52.418;13.398;2022-08-19T10:51:13;24.70;99.90
26952;DHT22;14507;52.418;13.398;2022-08-19T10:53:57;24.70;99.90
26952;DHT22;14507;52.418;13.398;2022-08-19T10:56:24;24.70;99.90
26952;DHT22;14507;52.418;13.398;2022-08-19T10:59:08;24.70;99.90
26952;DHT22;14507;52.418;13.398;2022-08-19T11:01:35;24.60;99.90
26952;DHT22;14507;52.418;13.398;2022-08-19T11:04:02;24.60;99.90
26952;DHT22;14507;52.418;13.398;2022-08-19T11:06:28;24.60;99.90
26952;DHT22;14507;52.418;13.398;2022-08-19T11:08:55;24.60;99.90
26952;DHT22;14507;52.418;13.398;2022-08-19T11:11:21;24.60;99.90
26952;DHT22;14507;52.418;13.398;2022-08-19T11:13:48;24.50;99.90
26952;DHT22;14507;52.418;13.398;2022-08-19T11:16:17;24.50;99.90
26952;DHT22;14507;52.418;13.398;2022-08-19T11:18:47;24.50;99.90
26952;DHT22;14507;52.418;13.398;2022-08-19T11:23:39;24.40;99.90
26952;DHT22;14507;52.418;13.398;2022-08-19T11:26:05;24.50;99.90
26952;DHT22;14507;52.418;13.398;2022-08-19T11:28:30;24.40;99.90
26952;DHT22;14507;52.418;13.398;2022-08-19T11:30:56;24.40;99.90
26952;DHT22;14507;52.418;13.398;2022-08-19T11:33:22;24.30;99.90
26952;DHT22;14507;52.418;13.398;2022-08-19T11:35:47;24.40;99.90
26952;DHT22;14507;52.418;13.398;2022-08-19T11:38:14;24.40;99.90
26952;DHT22;14507;52.418;13.398;2022-08-19T11:40:40;24.30;99.90
26952;DHT22;14507;52.418;13.398;2022-08-19T11:43:07;24.40;99.90
26952;DHT22;14507;52.418;13.398;2022-08-19T11:45:34;24.30;99.90
26952;DHT22;14507;52.418;13.398;2022-08-19T11:48:00;24.30;99.90
26952;DHT22;14507;52.418;13.398;2022-08-19T11:50:27;24.30;99.90
26952;DHT22;14507;52.418;13.398;2022-08-19T11:52:56;24.30;99.90
26952;DHT22;14507;52.418;13.398;2022-08-19T11:55:23;24.30;99.90
26952;DHT22;14507;52.418;13.398;2022-08-19T11:57:49;24.20;99.90
26952;DHT22;14507;52.418;13.398;2022-08-19T12:00:15;24.30;99.90
26952;DHT22;14507;52.418;13.398;2022-08-19T12:02:40;24.20;99.90
26952;DHT22;14507;52.418;13.398;2022-08-19T12:05:08;24.30;99.90
26952;DHT22;14507;52.418;13.398;2022-08-19T12:07:34;24.20;99.90
26952;DHT22;14507;52.418;13.398;2022-08-19T12:10:00;24.30;99.90
26952;DHT22;14507;52.418;13.398;2022-08-19T12:12:26;24.40;99.90
26952;DHT22;14507;52.418;13.398;2022-08-19T12:14:52;24.50;99.90
26952;DHT22;14507;52.418;13.398;2022-08-19T12:17:28;24.60;99.90
26952;DHT22;14507;52.418;13.398;2022-08-19T12:19:54;24.70;99.90
26952;DHT22;14507;52.418;13.398;2022-08-19T12:22:20;24.80;99.90
26952;DHT22;14507;52.418;13.398;2022-08-19T12:24:46;24.90;99.90
26952;DHT22;14507;52.418;13.398;2022-08-19T12:27:13;24.80;99.90
26952;DHT22;14507;52.418;13.398;2022-08-19T12:29:38;24.80;99.90
26952;DHT22;14507;52.418;13.398;2022-08-19T12:32:05;24.80;99.90
26952;DHT22;14507;52.418;13.398;2022-08-19T12:34:31;24.90;99.90
26952;DHT22;14507;52.418;13.398;2022-08-19T12:36:59;24.90;99.90
26952;DHT22;14507;52.418;13.398;2022-08-19T12:39:26;24.90;99.90
26952;DHT22;14507;52.418;13.398;2022-08-19T12:41:51;25.00;99.90
26952;DHT22;14507;52.418;13.398;2022-08-19T12:44:17;25.10;99.90
26952;DHT22;14507;52.418;13.398;2022-08-19T12:46:43;25.20;99.90
26952;DHT22;14507;52.418;13.398;2022-08-19T12:49:09;25.40;99.90
26952;DHT22;14507;52.418;13.398;2022-08-19T12:51:35;25.50;99.90
26952;DHT22;14507;52.418;13.398;2022-08-19T12:54:01;25.60;99.90
26952;DHT22;14507;52.418;13.398;2022-08-19T12:56:27;25.70;99.90
26952;DHT22;14507;52.418;13.398;2022-08-19T12:58:52;25.80;99.90
26952;DHT22;14507;52.418;13.398;2022-08-19T13:01:18;25.80;99.90
26952;DHT22;14507;52.418;13.398;2022-08-19T13:03:46;25.90;99.90
26952;DHT22;14507;52.418;13.398;2022-08-19T13:06:12;26.00;99.90
26952;DHT22;14507;52.418;13.398;2022-08-19T13:08:38;26.00;99.90
26952;DHT22;14507;52.418;13.398;2022-08-19T13:11:11;26.00;99.90
26952;DHT22;14507;52.418;13.398;2022-08-19T13:13:38;25.90;99.90
26952;DHT22;14507;52.418;13.398;2022-08-19T13:16:06;25.90;99.90
26952;DHT22;14507;52.418;13.398;2022-08-19T13:18:32;25.80;99.90
26952;DHT22;14507;52.418;13.398;2022-08-19T13:21:02;25.70;99.90
26952;DHT22;14507;52.418;13.398;2022-08-19T13:23:29;25.60;99.90
26952;DHT22;14507;52.418;13.398;2022-08-19T13:26:00;25.50;99.90
26952;DHT22;14507;52.418;13.398;2022-08-19T13:28:27;25.30;99.90
26952;DHT22;14507;52.418;13.398;2022-08-19T13:31:15;25.30;99.90
26952;DHT22;14507;52.418;13.398;2022-08-19T13:33:59;25.20;99.90
26952;DHT22;14507;52.418;13.398;2022-08-19T13:36:25;25.10;99.90
26952;DHT22;14507;52.418;13.398;2022-08-19T13:38:51;25.10;99.90
26952;DHT22;14507;52.418;13.398;2022-08-19T13:41:17;25.10;99.90
26952;DHT22;14507;52.418;13.398;2022-08-19T13:43:44;25.00;99.90
26952;DHT22;14507;52.418;13.398;2022-08-19T13:46:11;25.10;99.90
26952;DHT22;14507;52.418;13.398;2022-08-19T13:48:39;25.10;99.90
26952;DHT22;14507;52.418;13.398;2022-08-19T13:51:07;25.20;99.90
26952;DHT22;14507;52.418;13.398;2022-08-19T13:53:36;25.30;99.90
26952;DHT22;14507;52.418;13.398;2022-08-19T13:56:07;25.30;99.90
26952;DHT22;14507;52.418;13.398;2022-08-19T13:58:33;25.40;99.90
26952;DHT22;14507;52.418;13.398;2022-08-19T14:00:59;25.40;99.90
26952;DHT22;14507;52.418;13.398;2022-08-19T14:03:25;25.60;99.90
26952;DHT22;14507;52.418;13.398;2022-08-19T14:05:51;25.60;99.90
26952;DHT22;14507;52.418;13.398;2022-08-19T14:08:17;25.70;99.90
26952;DHT22;14507;52.418;13.398;2022-08-19T14:10:44;25.70;99.90
26952;DHT22;14507;52.418;13.398;2022-08-19T14:13:13;25.80;99.90
26952;DHT22;14507;52.418;13.398;2022-08-19T14:15:39;25.80;99.90
26952;DHT22;14507;52.418;13.398;2022-08-19T14:18:05;25.90;99.90
26952;DHT22;14507;52.418;13.398;2022-08-19T14:20:34;25.90;99.90
26952;DHT22;14507;52.418;13.398;2022-08-19T14:23:00;25.90;99.90
26952;DHT22;14507;52.418;13.398;2022-08-19T14:25:29;25.90;99.90
26952;DHT22;14507;52.418;13.398;2022-08-19T14:27:56;25.80;99.90
26952;DHT22;14507;52.418;13.398;2022-08-19T14:30:28;25.80;99.90
26952;DHT22;14507;52.418;13.398;2022-08-19T14:32:55;25.80;99.90
26952;DHT22;14507;52.418;13.398;2022-08-19T14:35:22;25.70;99.90
26952;DHT22;14507;52.418;13.398;2022-08-19T14:37:49;25.70;99.90
26952;DHT22;14507;52.418;13.398;2022-08-19T14:40:17;25.80;99.90
26952;DHT22;14507;52.418;13.398;2022-08-19T14:42:46;25.80;99.90
26952;DHT22;14507;52.418;13.398;2022-08-19T14:45:12;25.70;99.90
26952;DHT22;14507;52.418;13.398;2022-08-19T14:47:38;25.70;99.90
26952;DHT22;14507;52.418;13.398;2022-08-19T14:50:08;25.60;99.90
26952;DHT22;14507;52.418;13.398;2022-08-19T14:52:34;25.60;99.90
26952;DHT22;14507;52.418;13.398;2022-08-19T14:55:00;25.60;99.90
26952;DHT22;14507;52.418;13.398;2022-08-19T14:57:26;25.60;99.90
26952;DHT22;14507;52.418;13.398;2022-08-19T14:59:52;25.50;99.90
26952;DHT22;14507;52.418;13.398;2022-08-19T15:02:17;25.40;99.90
26952;DHT22;14507;52.418;13.398;2022-08-19T15:04:43;25.30;99.90
26952;DHT22;14507;52.418;13.398;2022-08-19T15:07:09;25.30;99.90
26952;DHT22;14507;52.418;13.398;2022-08-19T15:09:35;25.20;99.90
26952;DHT22;14507;52.418;13.398;2022-08-19T15:12:01;25.20;99.90
26952;DHT22;14507;52.418;13.398;2022-08-19T15:14:28;25.00;99.90
26952;DHT22;14507;52.418;13.398;2022-08-19T15:17:00;25.30;99.90
26952;DHT22;14507;52.418;13.398;2022-08-19T15:19:26;24.90;99.90
26952;DHT22;14507;52.418;13.398;2022-08-19T15:21:52;24.80;99.90
26952;DHT22;14507;52.418;13.398;2022-08-19T15:24:20;24.80;99.90
26952;DHT22;14507;52.418;13.398;2022-08-19T15:26:45;24.70;99.90
26952;DHT22;14507;52.418;13.398;2022-08-19T15:29:11;24.70;99.90
26952;DHT22;14507;52.418;13.398;2022-08-19T15:31:42;24.60;99.90
26952;DHT22;14507;52.418;13.398;2022-08-19T15:34:07;24.50;99.90
26952;DHT22;14507;52.418;13.398;2022-08-19T15:36:34;24.50;99.90